Sct Breithorn — HBHC — position and weather

sailwx.info

Track history (hours):
 
Tides and Currents Weather Stations Pressure Air Temp Water Temp Dewpoint Dewpoint Depression Visibility Wind Speed Wind Dir Waves Ship Positions

Sct Breithorn

Last reported at 2016-Apr-29 00:07 UTC. Time now 2016-Jul-25 17:49 UTC.
Position N 31°21' E 121°39'.
Warning: this ship's position is months out of date.

Length 165 m; draft 9.6 m.

Type: Ship (hazmat cat B). MMSI: 269848000.

Date/timePositionNaut miles runAvg speedWind from/ knotsBaromVisibWave heightAir tempDewpointWater temp
2016-Apr-29 00:07N 31°21' E 121°39'711.9
2016-Apr-28 23:33N 31°25' E 121°32'1111.5
2016-Apr-28 22:33N 31°32' E 121°21'3 2.7
2016-Apr-28 21:30N 31°35' E 121°20'0 0.0
2016-Apr-28 20:27N 31°35' E 121°20'0 0.0
2016-Apr-28 19:30N 31°35' E 121°20'0 0.1
2016-Apr-28 18:27N 31°35' E 121°20'0 0.1
2016-Apr-28 17:33N 31°35' E 121°20'0 0.0
2016-Apr-28 16:33N 31°35' E 121°20'0 0.0
2016-Apr-28 15:33N 31°35' E 121°20'0 0.0
2016-Apr-28 14:27N 31°35' E 121°20'0 0.0
2016-Apr-28 13:33N 31°35' E 121°20'0 0.0
2016-Apr-28 12:33N 31°35' E 121°20'0 0.0
2016-Apr-28 11:33N 31°35' E 121°20'0 0.1
2016-Apr-28 10:27N 31°35' E 121°20'0 0.0
2016-Apr-28 09:33N 31°35' E 121°20'4 4.1
2016-Apr-28 08:34N 31°37' E 121°16'36 1.5
2016-Apr-27 08:29N 32°01' E 120°44'9 9.3
2016-Apr-27 07:33N 31°55' E 120°53'2210.6
2016-Apr-27 05:30N 31°41' E 121°11'1010.0
2016-Apr-27 04:33N 31°34' E 121°20'1 1.1
2016-Apr-27 03:33N 31°34' E 121°21'0 0.0
2016-Apr-27 02:33N 31°34' E 121°21'0 0.1
2016-Apr-27 01:33N 31°34' E 121°21'0 0.0
2016-Apr-27 00:33N 31°34' E 121°21'0 0.0
2016-Apr-26 23:33N 31°34' E 121°21'0 0.0
2016-Apr-26 22:30N 31°34' E 121°21'0 0.1
2016-Apr-26 21:33N 31°34' E 121°21'0 0.1
2016-Apr-26 20:30N 31°34' E 121°21'0 0.1
2016-Apr-26 19:33N 31°35' E 121°21'0 0.0
2016-Apr-26 18:33N 31°35' E 121°21'0 0.1
2016-Apr-26 17:30N 31°34' E 121°21'0 0.2
2016-Apr-26 16:33N 31°34' E 121°21'0 0.0
2016-Apr-26 15:33N 31°34' E 121°21'0 0.0
2016-Apr-26 14:33N 31°34' E 121°21'0 0.0
2016-Apr-26 13:33N 31°34' E 121°21'0 0.0
2016-Apr-26 12:33N 31°34' E 121°21'0 0.1
2016-Apr-26 11:33N 31°34' E 121°21'7 6.8
2016-Apr-26 10:33N 31°29' E 121°26'9 8.6
2016-Apr-26 09:33N 31°24' E 121°34'8 7.5
2016-Apr-26 08:33N 31°20' E 121°42'  
Track history (hours):
 
Tides and Currents Weather Stations Pressure Air Temp Water Temp Dewpoint Dewpoint Depression Visibility Wind Speed Wind Dir Waves Ship Positions

Sct Breithorn

Last reported at 2016-Apr-29 00:07 UTC. Time now 2016-Jul-25 17:49 UTC.
Position N 31°21' E 121°39'.
Warning: this ship's position is months out of date.

Length 165 m; draft 9.6 m.

Type: Ship (hazmat cat B). MMSI: 269848000.

Date/timePositionNaut miles runAvg speedWind from/ knotsBaromVisibWave heightAir tempDewpointWater temp
2016-Apr-29 00:07N 31°21' E 121°39'711.9
2016-Apr-28 23:33N 31°25' E 121°32'1111.5
2016-Apr-28 22:33N 31°32' E 121°21'3 2.7
2016-Apr-28 21:30N 31°35' E 121°20'0 0.0
2016-Apr-28 20:27N 31°35' E 121°20'0 0.0
2016-Apr-28 19:30N 31°35' E 121°20'0 0.1
2016-Apr-28 18:27N 31°35' E 121°20'0 0.1
2016-Apr-28 17:33N 31°35' E 121°20'0 0.0
2016-Apr-28 16:33N 31°35' E 121°20'0 0.0
2016-Apr-28 15:33N 31°35' E 121°20'0 0.0
2016-Apr-28 14:27N 31°35' E 121°20'0 0.0
2016-Apr-28 13:33N 31°35' E 121°20'0 0.0
2016-Apr-28 12:33N 31°35' E 121°20'0 0.0
2016-Apr-28 11:33N 31°35' E 121°20'0 0.1
2016-Apr-28 10:27N 31°35' E 121°20'0 0.0
2016-Apr-28 09:33N 31°35' E 121°20'4 4.1
2016-Apr-28 08:34N 31°37' E 121°16'36 1.5
2016-Apr-27 08:29N 32°01' E 120°44'9 9.3
2016-Apr-27 07:33N 31°55' E 120°53'2210.6
2016-Apr-27 05:30N 31°41' E 121°11'1010.0
2016-Apr-27 04:33N 31°34' E 121°20'1 1.1
2016-Apr-27 03:33N 31°34' E 121°21'0 0.0
2016-Apr-27 02:33N 31°34' E 121°21'0 0.1
2016-Apr-27 01:33N 31°34' E 121°21'0 0.0
2016-Apr-27 00:33N 31°34' E 121°21'0 0.0
2016-Apr-26 23:33N 31°34' E 121°21'0 0.0
2016-Apr-26 22:30N 31°34' E 121°21'0 0.1
2016-Apr-26 21:33N 31°34' E 121°21'0 0.1
2016-Apr-26 20:30N 31°34' E 121°21'0 0.1
2016-Apr-26 19:33N 31°35' E 121°21'0 0.0
2016-Apr-26 18:33N 31°35' E 121°21'0 0.1
2016-Apr-26 17:30N 31°34' E 121°21'0 0.2
2016-Apr-26 16:33N 31°34' E 121°21'0 0.0
2016-Apr-26 15:33N 31°34' E 121°21'0 0.0
2016-Apr-26 14:33N 31°34' E 121°21'0 0.0
2016-Apr-26 13:33N 31°34' E 121°21'0 0.0
2016-Apr-26 12:33N 31°34' E 121°21'0 0.1
2016-Apr-26 11:33N 31°34' E 121°21'7 6.8
2016-Apr-26 10:33N 31°29' E 121°26'9 8.6
2016-Apr-26 09:33N 31°24' E 121°34'8 7.5
2016-Apr-26 08:33N 31°20' E 121°42'  

Dump ship's entire track history